createdAt,value
2017-07-03T00:00:24.038Z,15.6
2017-07-03T00:01:23.637Z,15.6
2017-07-03T00:02:22.855Z,15.6
2017-07-03T00:03:22.059Z,15.6
2017-07-03T00:04:21.827Z,15.6
2017-07-03T00:06:19.933Z,15.6
2017-07-03T00:07:19.147Z,15.6
2017-07-03T00:08:18.230Z,15.5
2017-07-03T00:09:18.002Z,15.5
2017-07-03T00:10:16.595Z,15.4
2017-07-03T00:11:15.803Z,15.4
2017-07-03T00:12:15.514Z,15.4
2017-07-03T00:13:14.718Z,15.4
2017-07-03T00:13:45.267Z,15.4
2017-07-03T00:14:15.787Z,15.4
2017-07-03T00:15:12.977Z,15.5
2017-07-03T00:16:12.067Z,15.5
2017-07-03T00:17:11.667Z,15.4
2017-07-03T00:18:10.482Z,15.4
2017-07-03T00:19:10.693Z,15.4
2017-07-03T00:20:09.394Z,15.4
2017-07-03T00:21:08.621Z,15.4
2017-07-03T00:22:07.829Z,15.3
2017-07-03T00:23:07.055Z,15.3
2017-07-03T00:24:06.275Z,15.2
2017-07-03T00:25:05.490Z,15.3
2017-07-03T00:26:05.240Z,15.2
2017-07-03T00:27:03.833Z,15.2
2017-07-03T00:28:03.999Z,15.1
2017-07-03T00:29:02.709Z,15.1
2017-07-03T00:30:01.930Z,15.1
2017-07-03T00:31:01.023Z,15.1
2017-07-03T00:32:00.233Z,15.1
2017-07-03T00:32:59.449Z,15.1
2017-07-03T00:33:58.604Z,15.1
2017-07-03T00:34:57.924Z,15.1
2017-07-03T00:35:57.645Z,15.1
2017-07-03T00:36:56.632Z,15.2
2017-07-03T00:37:56.434Z,15.2
2017-07-03T00:38:55.154Z,15.2
2017-07-03T00:39:54.265Z,15.2
2017-07-03T00:40:53.473Z,15.3
2017-07-03T00:41:52.688Z,15.1
2017-07-03T00:42:23.230Z,15.1
2017-07-03T00:42:53.754Z,15.1
2017-07-03T00:43:24.730Z,15.1
2017-07-03T00:43:54.628Z,15.1
2017-07-03T00:44:25.164Z,15.1
2017-07-03T00:45:50.043Z,15
2017-07-03T00:46:49.253Z,15
2017-07-03T00:47:48.409Z,15.1
2017-07-03T00:48:47.620Z,15.1
2017-07-03T00:49:46.848Z,15.1
2017-07-03T00:50:47.016Z,15.1
2017-07-03T00:51:45.207Z,15.1
2017-07-03T00:52:44.913Z,15.2
2017-07-03T00:53:44.131Z,15.1
2017-07-03T00:54:43.347Z,15
2017-07-03T00:55:42.580Z,15
2017-07-03T00:56:41.679Z,15
2017-07-03T00:58:40.154Z,15
2017-07-03T00:59:39.318Z,15
2017-07-03T01:00:38.532Z,15
2017-07-03T01:01:37.748Z,14.9
2017-07-03T01:02:37.352Z,15
2017-07-03T01:03:37.116Z,14.9
2017-07-03T01:04:36.397Z,14.9
2017-07-03T01:05:35.697Z,15
2017-07-03T01:06:34.398Z,15
2017-07-03T01:07:33.615Z,14.9
2017-07-03T01:08:32.840Z,14.9
2017-07-03T01:09:31.933Z,14.9
2017-07-03T01:10:31.023Z,15
2017-07-03T01:11:30.232Z,15
2017-07-03T01:12:30.420Z,15
2017-07-03T01:13:29.113Z,15
2017-07-03T01:14:28.342Z,15
2017-07-03T01:15:27.553Z,15
2017-07-03T01:16:26.755Z,14.9
2017-07-03T01:17:26.012Z,14.9
2017-07-03T01:18:25.221Z,14.9
2017-07-03T01:19:24.444Z,14.9
2017-07-03T01:20:24.237Z,14.9
2017-07-03T01:21:22.946Z,14.9
2017-07-03T01:22:22.149Z,14.9
2017-07-03T01:23:21.348Z,14.9
2017-07-03T01:24:20.451Z,14.9
2017-07-03T01:25:20.056Z,14.8
2017-07-03T01:26:19.149Z,14.8
2017-07-03T01:27:18.239Z,14.6
2017-07-03T01:28:17.453Z,14.6
2017-07-03T01:29:16.657Z,14.6
2017-07-03T01:30:16.255Z,14.6
2017-07-03T01:31:15.473Z,14.7
2017-07-03T01:32:14.686Z,14.7
2017-07-03T01:33:13.905Z,14.7
2017-07-03T01:34:13.126Z,14.8
2017-07-03T01:35:12.336Z,14.8
2017-07-03T01:36:12.135Z,14.8
2017-07-03T01:38:10.223Z,14.8
2017-07-03T01:39:09.328Z,14.8
2017-07-03T01:40:08.625Z,14.8
2017-07-03T01:41:07.713Z,14.8
2017-07-03T01:42:07.194Z,14.8
2017-07-03T01:43:06.333Z,14.8
2017-07-03T01:44:05.598Z,14.8
2017-07-03T01:45:04.841Z,14.8
2017-07-03T01:46:04.194Z,14.8
2017-07-03T01:47:03.415Z,14.7
2017-07-03T01:48:02.673Z,14.7
2017-07-03T01:49:01.898Z,14.7
2017-07-03T01:50:00.887Z,14.6
2017-07-03T01:51:00.377Z,14.7
2017-07-03T01:51:59.603Z,14.6
2017-07-03T01:52:58.834Z,14.6
2017-07-03T01:53:58.055Z,14.6
2017-07-03T01:54:57.265Z,14.6
2017-07-03T01:56:55.372Z,14.6
2017-07-03T01:57:55.155Z,14.6
2017-07-03T01:58:53.741Z,14.6
2017-07-03T01:59:53.327Z,14.6
2017-07-03T02:00:52.540Z,14.7
2017-07-03T02:01:51.830Z,14.7
2017-07-03T02:02:51.613Z,14.7
2017-07-03T02:03:50.334Z,14.7
2017-07-03T02:04:49.551Z,14.6
2017-07-03T02:05:48.647Z,14.6
2017-07-03T02:06:47.944Z,14.6
2017-07-03T02:07:47.728Z,14.6
2017-07-03T02:08:17.673Z,14.6
2017-07-03T02:09:45.587Z,14.6
2017-07-03T02:10:44.809Z,14.5
2017-07-03T02:11:44.012Z,14.5
2017-07-03T02:12:43.227Z,14.5
2017-07-03T02:13:42.440Z,14.6
2017-07-03T02:14:41.657Z,14.6
2017-07-03T02:15:40.872Z,14.6
2017-07-03T02:16:39.969Z,14.6
2017-07-03T02:17:39.687Z,14.6
2017-07-03T02:18:38.901Z,14.6
2017-07-03T02:19:37.677Z,14.6
2017-07-03T02:20:36.877Z,14.6
2017-07-03T02:21:36.583Z,14.6
2017-07-03T02:22:35.678Z,14.6
2017-07-03T02:23:34.901Z,14.5
2017-07-03T02:24:33.862Z,14.5
2017-07-03T02:25:33.459Z,14.5
2017-07-03T02:26:32.666Z,14.6
2017-07-03T02:27:31.878Z,14.6
2017-07-03T02:28:31.101Z,14.5
2017-07-03T02:30:29.214Z,14.5
2017-07-03T02:31:28.813Z,14.5
2017-07-03T02:32:28.047Z,14.5
2017-07-03T02:33:27.252Z,14.5
2017-07-03T02:34:26.341Z,14.5
2017-07-03T02:35:25.448Z,14.5
2017-07-03T02:36:24.653Z,14.5
2017-07-03T02:37:24.131Z,14.5
2017-07-03T02:38:23.907Z,14.5
2017-07-03T02:39:22.591Z,14.6
2017-07-03T02:40:21.800Z,14.6
2017-07-03T02:41:21.005Z,14.5
2017-07-03T02:42:20.109Z,14.6
2017-07-03T02:43:19.605Z,14.5
2017-07-03T02:44:18.692Z,14.5
2017-07-03T02:45:17.901Z,14.5
2017-07-03T02:46:17.113Z,14.5
2017-07-03T02:47:16.101Z,14.5
2017-07-03T02:48:15.813Z,14.5
2017-07-03T02:49:15.032Z,14.5
2017-07-03T02:50:13.801Z,14.5
2017-07-03T02:52:12.402Z,14.5
2017-07-03T02:53:11.611Z,14.5
2017-07-03T02:54:10.827Z,14.5
2017-07-03T02:55:10.048Z,14.5
2017-07-03T02:56:09.257Z,14.5
2017-07-03T02:57:08.472Z,14.5
2017-07-03T02:58:07.681Z,14.5
2017-07-03T02:59:06.900Z,14.5
2017-07-03T03:00:06.115Z,14.5
2017-07-03T03:01:05.330Z,14.6
2017-07-03T03:02:05.034Z,14.5
2017-07-03T03:03:04.246Z,14.6
2017-07-03T03:04:03.454Z,14.6
2017-07-03T03:05:02.674Z,14.6
2017-07-03T03:06:01.543Z,14.6
2017-07-03T03:07:01.145Z,14.6
2017-07-03T03:08:00.367Z,14.6
2017-07-03T03:08:59.580Z,14.6
2017-07-03T03:09:58.795Z,14.6
2017-07-03T03:10:58.008Z,14.6
2017-07-03T03:11:57.231Z,14.6
2017-07-03T03:12:56.452Z,14.6
2017-07-03T03:13:56.246Z,14.6
2017-07-03T03:14:55.026Z,14.6
2017-07-03T03:15:54.140Z,14.6
2017-07-03T03:16:53.349Z,14.6
2017-07-03T03:17:52.463Z,14.6
2017-07-03T03:18:22.988Z,14.6
2017-07-03T03:18:53.435Z,14.6
2017-07-03T03:19:51.151Z,14.6
2017-07-03T03:20:50.367Z,14.5
2017-07-03T03:21:49.582Z,14.5
2017-07-03T03:22:48.793Z,14.5
2017-07-03T03:23:48.004Z,14.6
2017-07-03T03:24:47.220Z,14.6
2017-07-03T03:25:46.426Z,14.6
2017-07-03T03:26:45.641Z,14.6
2017-07-03T03:27:15.932Z,14.6
2017-07-03T03:27:46.333Z,14.6
2017-07-03T03:28:44.065Z,14.6
2017-07-03T03:29:43.327Z,14.6
2017-07-03T03:30:42.603Z,14.6
2017-07-03T03:31:41.530Z,14.6
2017-07-03T03:32:40.760Z,14.6
2017-07-03T03:33:39.858Z,14.6
2017-07-03T03:34:40.019Z,14.6
2017-07-03T03:35:38.611Z,14.6
2017-07-03T03:36:37.818Z,14.6
2017-07-03T03:37:37.035Z,14.6
2017-07-03T03:38:36.257Z,14.6
2017-07-03T03:39:06.856Z,14.6
2017-07-03T03:39:37.388Z,14.5
2017-07-03T03:40:07.916Z,14.5
2017-07-03T03:40:38.441Z,14.5
2017-07-03T03:41:34.130Z,14.5
2017-07-03T03:42:33.345Z,14.5
2017-07-03T03:43:32.553Z,14.5
2017-07-03T03:44:31.533Z,14.5
2017-07-03T03:45:30.629Z,14.5
2017-07-03T03:46:30.346Z,14.5
2017-07-03T03:47:29.442Z,14.5
2017-07-03T03:48:28.688Z,14.5
2017-07-03T03:49:27.775Z,14.5
2017-07-03T03:50:26.871Z,14.5
2017-07-03T03:51:26.069Z,14.5
2017-07-03T03:52:25.278Z,14.6
2017-07-03T03:53:24.365Z,14.6
2017-07-03T03:54:23.967Z,14.6
2017-07-03T03:55:23.070Z,14.7
2017-07-03T03:56:22.277Z,14.8
2017-07-03T03:57:21.487Z,14.8
2017-07-03T03:58:20.696Z,14.8
2017-07-03T03:58:52.106Z,14.8
2017-07-03T04:00:19.398Z,14.7
2017-07-03T04:01:19.172Z,14.8
2017-07-03T04:02:17.890Z,14.8
2017-07-03T04:03:17.096Z,14.8
2017-07-03T04:04:16.332Z,14.8
2017-07-03T04:05:16.211Z,14.9
2017-07-03T04:06:14.438Z,14.9
2017-07-03T04:07:13.667Z,14.8
2017-07-03T04:08:12.882Z,14.8
2017-07-03T04:09:12.110Z,14.8
2017-07-03T04:10:11.330Z,14.8
2017-07-03T04:10:41.935Z,14.8
2017-07-03T04:11:12.457Z,14.8
2017-07-03T04:12:10.169Z,14.8
2017-07-03T04:13:09.273Z,14.8
2017-07-03T04:14:08.482Z,14.8
2017-07-03T04:15:08.252Z,14.8
2017-07-03T04:16:07.541Z,14.8
2017-07-03T04:17:06.258Z,14.8
2017-07-03T04:18:05.461Z,14.8
2017-07-03T04:19:04.746Z,14.8
2017-07-03T04:20:04.421Z,14.8
2017-07-03T04:21:03.019Z,14.8
2017-07-03T04:22:02.225Z,14.8
2017-07-03T04:23:01.436Z,14.8
2017-07-03T04:24:00.718Z,14.8
2017-07-03T04:24:59.926Z,14.8
2017-07-03T04:25:59.031Z,14.8
2017-07-03T04:26:58.257Z,15
2017-07-03T04:27:57.248Z,15
2017-07-03T04:28:57.025Z,15.1
2017-07-03T04:29:56.810Z,15.1
2017-07-03T04:30:55.515Z,15
2017-07-03T04:31:54.733Z,15.1
2017-07-03T04:33:52.830Z,15.1
2017-07-03T04:35:51.323Z,15.3
2017-07-03T04:36:50.644Z,15.3
2017-07-03T04:37:49.858Z,15.3
2017-07-03T04:38:49.079Z,15.5
2017-07-03T04:39:48.297Z,15.5
2017-07-03T04:40:47.517Z,15.5
2017-07-03T04:41:46.616Z,15.5
2017-07-03T04:42:45.828Z,15.5
2017-07-03T04:43:45.469Z,15.5
2017-07-03T04:44:44.694Z,15.5
2017-07-03T04:45:43.900Z,15.8
2017-07-03T04:46:43.119Z,15.9
2017-07-03T04:47:42.329Z,16
2017-07-03T04:48:41.591Z,15.9
2017-07-03T04:49:40.848Z,16
2017-07-03T04:50:40.079Z,16
2017-07-03T04:51:39.286Z,16
2017-07-03T04:52:38.505Z,15.9
2017-07-03T04:54:36.990Z,15.9
2017-07-03T04:55:36.188Z,15.9
2017-07-03T04:56:35.286Z,16.1
2017-07-03T04:57:34.385Z,16.1
2017-07-03T04:58:33.367Z,16.2
2017-07-03T04:59:32.962Z,16.3
2017-07-03T05:00:32.064Z,16.3
2017-07-03T05:01:31.292Z,16.4
2017-07-03T05:02:30.503Z,16.3
2017-07-03T05:03:29.734Z,16.4
2017-07-03T05:04:28.843Z,16.3
2017-07-03T05:04:59.360Z,16.3
2017-07-03T05:05:29.652Z,16.2
2017-07-03T05:06:00.165Z,16.2
2017-07-03T05:07:26.551Z,16.2
2017-07-03T05:08:26.341Z,16.3
2017-07-03T05:09:25.074Z,16.3
2017-07-03T05:10:24.279Z,16.5
2017-07-03T05:11:23.823Z,16.5
2017-07-03T05:12:22.911Z,16.5
2017-07-03T05:13:21.834Z,16.6
2017-07-03T05:14:21.558Z,16.8
2017-07-03T05:15:20.771Z,16.9
2017-07-03T05:16:19.984Z,17
2017-07-03T05:17:19.197Z,16.9
2017-07-03T05:18:19.567Z,16.9
2017-07-03T05:20:16.661Z,16.9
2017-07-03T05:21:15.875Z,16.8
2017-07-03T05:22:15.090Z,16.9
2017-07-03T05:23:14.871Z,16.9
2017-07-03T05:24:13.588Z,17
2017-07-03T05:25:12.686Z,17
2017-07-03T05:26:11.903Z,17
2017-07-03T05:28:10.509Z,16.6
2017-07-03T05:29:10.320Z,16.6
2017-07-03T05:30:09.036Z,16.6
2017-07-03T05:31:08.254Z,16.4
2017-07-03T05:32:07.490Z,16.4
2017-07-03T05:33:06.709Z,16.5
2017-07-03T05:34:05.921Z,16.5
2017-07-03T05:35:05.017Z,16.7
2017-07-03T05:36:04.813Z,16.7
2017-07-03T05:37:03.917Z,16.9
2017-07-03T05:38:03.155Z,16.8
2017-07-03T05:40:00.901Z,16.6
2017-07-03T05:41:00.620Z,16.6
2017-07-03T05:41:59.832Z,16.5
2017-07-03T05:42:59.145Z,16.5
2017-07-03T05:43:58.359Z,16.5
2017-07-03T05:44:28.908Z,16.5
2017-07-03T05:44:59.313Z,16.5
2017-07-03T05:45:29.731Z,16.5
2017-07-03T05:46:00.249Z,16.5
2017-07-03T05:46:31.353Z,16.5
2017-07-03T05:47:54.990Z,16.6
2017-07-03T05:49:53.595Z,16.8
2017-07-03T05:50:52.683Z,16.9
2017-07-03T05:51:52.393Z,16.9
2017-07-03T05:52:52.192Z,16.9
2017-07-03T05:53:50.913Z,17.4
2017-07-03T05:54:50.124Z,17.5
2017-07-03T05:55:49.872Z,17.6
2017-07-03T05:56:19.768Z,17.6
2017-07-03T05:56:50.168Z,17.5
2017-07-03T05:57:20.684Z,17.5
2017-07-03T05:57:51.222Z,17.5
2017-07-03T05:58:21.757Z,17.5
2017-07-03T05:59:46.143Z,17.3
2017-07-03T06:00:45.170Z,17.4
2017-07-03T06:01:44.389Z,17.4
2017-07-03T06:02:43.387Z,17.6
2017-07-03T06:04:42.492Z,17.6
2017-07-03T06:05:41.701Z,17.7
2017-07-03T06:06:40.909Z,17.8
2017-07-03T06:07:40.111Z,17.8
2017-07-03T06:08:39.210Z,17.9
2017-07-03T06:09:39.011Z,18
2017-07-03T06:10:37.546Z,18.1
2017-07-03T06:11:36.753Z,18.2
2017-07-03T06:12:35.953Z,18.2
2017-07-03T06:13:35.167Z,18.3
2017-07-03T06:14:34.383Z,18.3
2017-07-03T06:15:33.591Z,18.4
2017-07-03T06:16:04.172Z,18.4
2017-07-03T06:16:34.695Z,18.5
2017-07-03T06:17:32.280Z,18.5
2017-07-03T06:18:31.493Z,18.6
2017-07-03T06:19:31.280Z,18.8
2017-07-03T06:20:30.045Z,19
2017-07-03T06:21:29.157Z,19
2017-07-03T06:22:28.246Z,19
2017-07-03T06:23:27.508Z,19.1
2017-07-03T06:24:26.746Z,19
2017-07-03T06:25:25.848Z,18.8
2017-07-03T06:26:25.575Z,19
2017-07-03T06:27:24.801Z,19
2017-07-03T06:28:24.031Z,19.1
2017-07-03T06:30:22.512Z,19.1
2017-07-03T06:31:21.727Z,18.9
2017-07-03T06:32:20.941Z,19
2017-07-03T06:33:20.159Z,19.1
2017-07-03T06:34:19.929Z,19
2017-07-03T06:35:18.647Z,19
2017-07-03T06:36:17.852Z,19.2
2017-07-03T06:36:48.466Z,19.2
2017-07-03T06:37:19.002Z,19.2
2017-07-03T06:37:49.405Z,19.2
2017-07-03T06:39:15.313Z,19.3
2017-07-03T06:40:15.028Z,19.1
2017-07-03T06:41:14.810Z,19.3
2017-07-03T06:42:12.896Z,19.5
2017-07-03T06:43:12.560Z,19.5
2017-07-03T06:44:11.782Z,19.5
2017-07-03T06:45:11.002Z,19.8
2017-07-03T06:46:10.205Z,19.6
2017-07-03T06:47:09.421Z,19.6
2017-07-03T06:48:08.646Z,19.6
2017-07-03T06:49:07.856Z,19.7
2017-07-03T06:50:06.936Z,19.6
2017-07-03T06:51:07.219Z,19.6
2017-07-03T06:52:05.944Z,19.8
2017-07-03T06:53:05.210Z,19.8
2017-07-03T06:54:04.440Z,20
2017-07-03T06:55:03.657Z,20.2
2017-07-03T06:56:03.438Z,20.2
2017-07-03T06:57:02.151Z,20.2
2017-07-03T06:58:01.354Z,20.3
2017-07-03T06:59:00.568Z,20
2017-07-03T06:59:59.789Z,19.7
2017-07-03T07:00:58.885Z,19.7
2017-07-03T07:01:58.102Z,20
2017-07-03T07:02:57.186Z,19.8
2017-07-03T07:03:56.411Z,19.7
2017-07-03T07:04:56.719Z,19.9
2017-07-03T07:05:54.951Z,20.1
2017-07-03T07:06:54.204Z,20.1
2017-07-03T07:07:53.417Z,20.1
2017-07-03T07:08:53.144Z,20.1
2017-07-03T07:09:52.366Z,20.2
2017-07-03T07:10:52.144Z,20
2017-07-03T07:11:50.741Z,20
2017-07-03T07:12:49.953Z,20
2017-07-03T07:13:49.162Z,20
2017-07-03T07:14:48.378Z,20.1
2017-07-03T07:15:47.608Z,20.1
2017-07-03T07:16:46.699Z,20.5
2017-07-03T07:17:45.903Z,20.7
2017-07-03T07:18:45.508Z,21
2017-07-03T07:19:44.729Z,21
2017-07-03T07:20:43.945Z,21.1
2017-07-03T07:21:43.126Z,21
2017-07-03T07:22:42.354Z,21
2017-07-03T07:23:41.565Z,20.9
2017-07-03T07:24:41.347Z,20.9
2017-07-03T07:25:39.946Z,20.8
2017-07-03T07:26:39.568Z,20.8
2017-07-03T07:27:38.828Z,20.9
2017-07-03T07:28:38.029Z,21
2017-07-03T07:29:37.235Z,21
2017-07-03T07:30:37.022Z,21
2017-07-03T07:31:35.718Z,21
2017-07-03T07:32:34.810Z,20.9
2017-07-03T07:33:33.889Z,20.9
2017-07-03T07:34:33.616Z,21
2017-07-03T07:35:32.826Z,21
2017-07-03T07:36:32.597Z,21
2017-07-03T07:37:31.293Z,21.1
2017-07-03T07:38:30.503Z,21.2
2017-07-03T07:39:29.719Z,21.3
2017-07-03T07:40:28.702Z,21.3
2017-07-03T07:41:28.298Z,21.1
2017-07-03T07:42:27.390Z,21
2017-07-03T07:43:26.992Z,21
2017-07-03T07:44:26.095Z,21
2017-07-03T07:45:25.868Z,21
2017-07-03T07:46:24.577Z,21.1
2017-07-03T07:47:23.742Z,21.1
2017-07-03T07:48:22.966Z,21.3
2017-07-03T07:49:22.706Z,21.3
2017-07-03T07:50:21.989Z,21.3
2017-07-03T07:51:21.084Z,21.2
2017-07-03T07:52:20.287Z,21.1
2017-07-03T07:53:19.498Z,20.9
2017-07-03T07:54:18.657Z,20.8
2017-07-03T07:55:17.765Z,20.7
2017-07-03T07:56:17.529Z,20.5
2017-07-03T07:57:16.683Z,20.5
2017-07-03T07:58:15.781Z,20.4
2017-07-03T07:59:14.996Z,20.4
2017-07-03T08:00:14.764Z,20.3
2017-07-03T08:01:13.469Z,20.3
2017-07-03T08:02:13.185Z,20.3
2017-07-03T08:03:12.389Z,20.3
2017-07-03T08:03:42.926Z,20.3
2017-07-03T08:05:10.827Z,20.1
2017-07-03T08:06:10.103Z,20.2
2017-07-03T08:07:09.314Z,20.2
2017-07-03T08:08:08.526Z,20.1
2017-07-03T08:09:07.749Z,20
2017-07-03T08:10:06.973Z,20
2017-07-03T08:11:06.700Z,19.8
2017-07-03T08:12:05.807Z,19.6
2017-07-03T08:13:05.021Z,19.6
2017-07-03T08:14:04.119Z,19.5
2017-07-03T08:14:34.659Z,19.5
2017-07-03T08:15:05.188Z,19.4
2017-07-03T08:15:35.718Z,19.4
2017-07-03T08:16:06.249Z,19.5
2017-07-03T08:17:01.829Z,19.6
2017-07-03T08:18:02.127Z,19.9
2017-07-03T08:20:00.002Z,20.2
2017-07-03T08:20:59.514Z,20.3
2017-07-03T08:21:58.735Z,20.3
2017-07-03T08:22:58.495Z,20.3
2017-07-03T08:23:57.085Z,20.2
2017-07-03T08:24:56.305Z,20.3
2017-07-03T08:25:55.518Z,20.3
2017-07-03T08:26:54.743Z,20.2
2017-07-03T08:27:54.031Z,20.1
2017-07-03T08:28:53.740Z,20
2017-07-03T08:29:52.897Z,20.1
2017-07-03T08:30:52.454Z,20.1
2017-07-03T08:31:51.156Z,20.3
2017-07-03T08:32:50.882Z,20.6
2017-07-03T08:33:50.097Z,20.8
2017-07-03T08:34:49.305Z,20.8
2017-07-03T08:35:48.398Z,20.9
2017-07-03T08:36:47.924Z,21
2017-07-03T08:37:47.604Z,21.1
2017-07-03T08:38:46.935Z,21.1
2017-07-03T08:39:45.641Z,21.1
2017-07-03T08:40:44.861Z,21.5
2017-07-03T08:41:44.086Z,21.6
2017-07-03T08:42:44.235Z,21.8
2017-07-03T08:43:42.945Z,22.2
2017-07-03T08:44:42.164Z,22.1
2017-07-03T08:45:41.396Z,22
2017-07-03T08:47:39.997Z,21.5
2017-07-03T08:48:39.211Z,21.3
2017-07-03T08:49:38.427Z,21.2
2017-07-03T08:50:37.908Z,21.2
2017-07-03T08:51:37.116Z,21.1
2017-07-03T08:52:36.327Z,21.1
2017-07-03T08:53:35.620Z,21.1
2017-07-03T08:54:34.846Z,21.3
2017-07-03T08:55:34.069Z,21.2
2017-07-03T08:56:33.661Z,21.2
2017-07-03T08:57:32.866Z,21.1
2017-07-03T08:58:31.966Z,21.1
2017-07-03T08:59:31.446Z,21.1
2017-07-03T09:00:30.670Z,21.1
2017-07-03T09:01:30.842Z,20.9
2017-07-03T09:02:29.554Z,20.9
2017-07-03T09:03:28.781Z,20.9
2017-07-03T09:04:27.876Z,20.9
2017-07-03T09:05:27.087Z,21
2017-07-03T09:06:26.855Z,21.2
2017-07-03T09:07:25.831Z,21.3
2017-07-03T09:08:25.055Z,21.5
2017-07-03T09:09:24.063Z,21.6
2017-07-03T09:10:23.782Z,21.8
2017-07-03T09:11:22.999Z,21.8
2017-07-03T09:12:22.670Z,21.9
2017-07-03T09:12:52.699Z,21.9
2017-07-03T09:14:21.665Z,22
2017-07-03T09:15:20.379Z,22.1
2017-07-03T09:16:19.595Z,22
2017-07-03T09:17:18.805Z,22.1
2017-07-03T09:18:18.022Z,22.1
2017-07-03T09:19:17.254Z,22.5
2017-07-03T09:20:16.537Z,22.7
2017-07-03T09:21:15.749Z,22.7
2017-07-03T09:22:15.459Z,22.6
2017-07-03T09:23:15.249Z,22.5
2017-07-03T09:23:45.847Z,22.5
2017-07-03T09:25:13.127Z,22.5
2017-07-03T09:26:12.105Z,22.6
2017-07-03T09:27:12.386Z,22.6
2017-07-03T09:28:11.111Z,22.6
2017-07-03T09:29:10.333Z,22.6
2017-07-03T09:30:09.546Z,22.5
2017-07-03T09:31:09.255Z,22.5
2017-07-03T09:32:08.461Z,22.4
2017-07-03T09:33:07.548Z,22.3
2017-07-03T09:34:06.643Z,22.4
2017-07-03T09:35:06.240Z,22.5
2017-07-03T09:36:05.844Z,22.6
2017-07-03T09:37:04.948Z,22.7
2017-07-03T09:38:04.049Z,22.7
2017-07-03T09:39:03.767Z,22.8
2017-07-03T09:40:02.766Z,22.8
2017-07-03T09:41:02.454Z,22.7
2017-07-03T09:42:01.661Z,22.7
2017-07-03T09:43:00.761Z,22.6
2017-07-03T09:43:59.980Z,22.5
2017-07-03T09:44:59.585Z,22.2
2017-07-03T09:45:58.800Z,22.1
2017-07-03T09:46:57.792Z,22.3
2017-07-03T09:47:57.540Z,22.3
2017-07-03T09:48:56.765Z,22.3
2017-07-03T09:49:55.999Z,22.4
2017-07-03T09:50:55.286Z,22.5
2017-07-03T09:51:54.502Z,22.4
2017-07-03T09:52:54.210Z,22.3
2017-07-03T09:53:53.985Z,22.4
2017-07-03T09:54:52.700Z,22.4
2017-07-03T09:55:51.916Z,22.6
2017-07-03T09:56:51.007Z,22.7
2017-07-03T09:57:50.730Z,22.8
2017-07-03T09:58:49.959Z,22.7
2017-07-03T09:59:49.178Z,22.6
2017-07-03T10:00:48.410Z,22.6
2017-07-03T10:01:47.552Z,22.6
2017-07-03T10:02:47.257Z,22.6
2017-07-03T10:03:46.359Z,22.6
2017-07-03T10:04:45.960Z,22.5
2017-07-03T10:05:45.177Z,22.5
2017-07-03T10:06:44.399Z,22.5
2017-07-03T10:07:43.631Z,22.3
2017-07-03T10:08:43.425Z,22.5
2017-07-03T10:09:42.660Z,22.6
2017-07-03T10:11:41.265Z,22.8
2017-07-03T10:12:40.474Z,22.9
2017-07-03T10:13:40.286Z,23
2017-07-03T10:14:38.894Z,23.1
2017-07-03T10:15:38.608Z,23.1
2017-07-03T10:16:37.763Z,23.1
2017-07-03T10:17:36.989Z,23
2017-07-03T10:18:36.710Z,22.8
2017-07-03T10:19:35.911Z,22.7
2017-07-03T10:20:35.132Z,22.6
2017-07-03T10:21:34.355Z,22.6
2017-07-03T10:22:34.077Z,22.6
2017-07-03T10:23:33.186Z,22.6
2017-07-03T10:24:32.395Z,22.5
2017-07-03T10:25:31.499Z,22.3
2017-07-03T10:26:31.211Z,22.2
2017-07-03T10:27:30.306Z,22.1
2017-07-03T10:28:30.041Z,22
2017-07-03T10:29:29.145Z,22
2017-07-03T10:30:28.628Z,22.1
2017-07-03T10:31:28.333Z,22.2
2017-07-03T10:32:27.107Z,22.3
2017-07-03T10:33:26.197Z,22.3
2017-07-03T10:34:25.909Z,22.3
2017-07-03T10:35:25.019Z,22.5
2017-07-03T10:36:24.876Z,22.4
2017-07-03T10:37:23.960Z,22.4
2017-07-03T10:38:22.942Z,22.2
2017-07-03T10:39:22.678Z,22.1
2017-07-03T10:41:21.295Z,22.2
2017-07-03T10:42:20.529Z,22.2
2017-07-03T10:43:19.734Z,22.3
2017-07-03T10:44:20.042Z,22.3
2017-07-03T10:45:18.748Z,22.4
2017-07-03T10:47:17.354Z,22.5
2017-07-03T10:48:16.322Z,22.6
2017-07-03T10:49:16.026Z,22.6
2017-07-03T10:50:15.234Z,22.7
2017-07-03T10:51:14.449Z,22.7
2017-07-03T10:51:44.976Z,22.7
2017-07-03T10:52:15.497Z,22.7
2017-07-03T10:53:14.183Z,22.8
2017-07-03T10:54:12.902Z,22.8
2017-07-03T10:55:12.105Z,22.8
2017-07-03T10:56:11.315Z,22.8
2017-07-03T10:57:11.040Z,22.8
2017-07-03T10:58:10.249Z,22.8
2017-07-03T10:59:09.481Z,22.6
2017-07-03T11:00:08.702Z,22.6
2017-07-03T11:01:08.290Z,22.6
2017-07-03T11:02:07.509Z,22.6
2017-07-03T11:03:07.111Z,22.5
2017-07-03T11:04:06.323Z,22.5
2017-07-03T11:05:05.524Z,22.5
2017-07-03T11:06:05.128Z,22.6
2017-07-03T11:07:04.225Z,22.6
2017-07-03T11:08:03.950Z,22.6
2017-07-03T11:09:03.174Z,22.6
2017-07-03T11:10:02.276Z,22.5
2017-07-03T11:11:01.994Z,22.5
2017-07-03T11:12:01.082Z,22.6
2017-07-03T11:13:00.024Z,22.6
2017-07-03T11:13:59.759Z,22.7
2017-07-03T11:14:59.471Z,22.7
2017-07-03T11:15:58.691Z,22.7
2017-07-03T11:16:57.790Z,22.6
2017-07-03T11:17:57.391Z,22.5
2017-07-03T11:18:56.603Z,22.5
2017-07-03T11:19:56.221Z,22.5
2017-07-03T11:20:55.442Z,22.5
2017-07-03T11:21:54.647Z,22.5
2017-07-03T11:22:54.361Z,22.6
2017-07-03T11:23:53.457Z,22.6
2017-07-03T11:24:53.079Z,22.7
2017-07-03T11:25:52.060Z,22.8
2017-07-03T11:26:51.781Z,22.9
2017-07-03T11:27:51.012Z,22.9
2017-07-03T11:28:51.199Z,22.8
2017-07-03T11:29:49.925Z,22.9
2017-07-03T11:30:49.136Z,22.8
2017-07-03T11:31:48.415Z,22.8
2017-07-03T11:32:18.939Z,22.8
2017-07-03T11:33:47.234Z,22.9
2017-07-03T11:34:46.959Z,23
2017-07-03T11:35:46.061Z,22.9
2017-07-03T11:36:45.268Z,22.8
2017-07-03T11:37:44.985Z,22.8
2017-07-03T11:38:44.145Z,22.8
2017-07-03T11:39:44.320Z,22.7
2017-07-03T11:40:42.990Z,22.8
2017-07-03T11:41:42.209Z,22.8
2017-07-03T11:42:41.692Z,22.8
2017-07-03T11:43:12.279Z,22.8
2017-07-03T11:43:42.680Z,22.9
2017-07-03T11:44:13.789Z,22.9
2017-07-03T11:44:43.810Z,22.9
2017-07-03T11:45:14.900Z,22.9
2017-07-03T11:45:45.017Z,22.9
2017-07-03T11:46:15.432Z,22.9
2017-07-03T11:47:38.813Z,23
2017-07-03T11:48:37.809Z,23
2017-07-03T11:49:37.525Z,23
2017-07-03T11:50:37.117Z,23
2017-07-03T11:51:36.315Z,23
2017-07-03T11:52:35.528Z,23
2017-07-03T11:53:35.244Z,23
2017-07-03T11:54:34.455Z,23.1
2017-07-03T11:55:33.721Z,23.2
2017-07-03T11:56:33.443Z,23.1
2017-07-03T11:57:32.668Z,23.1
2017-07-03T11:58:31.932Z,23.1
2017-07-03T11:59:31.649Z,23.1
2017-07-03T12:00:30.741Z,23.1
2017-07-03T12:01:30.449Z,23.1
2017-07-03T12:02:29.650Z,23
2017-07-03T12:03:29.426Z,22.8
2017-07-03T12:03:59.323Z,22.8
2017-07-03T12:04:29.548Z,22.8
2017-07-03T12:05:27.755Z,22.8
2017-07-03T12:06:27.355Z,22.9
2017-07-03T12:07:26.584Z,22.9
2017-07-03T12:09:25.576Z,22.9
2017-07-03T12:10:24.683Z,22.8
2017-07-03T12:11:24.404Z,22.8
2017-07-03T12:12:23.504Z,22.8
2017-07-03T12:13:23.226Z,22.9
2017-07-03T12:14:22.448Z,22.8
2017-07-03T12:15:22.049Z,22.9
2017-07-03T12:16:21.258Z,22.9
2017-07-03T12:16:52.376Z,22.9
2017-07-03T12:17:22.396Z,22.9
2017-07-03T12:17:52.956Z,22.9
2017-07-03T12:18:23.470Z,22.8
2017-07-03T12:19:19.662Z,22.8
2017-07-03T12:20:18.875Z,22.6
2017-07-03T12:21:18.601Z,22.6
2017-07-03T12:22:17.702Z,22.7
2017-07-03T12:23:17.424Z,22.7
2017-07-03T12:24:16.657Z,22.8
2017-07-03T12:25:15.915Z,22.9
2017-07-03T12:25:46.454Z,22.9
2017-07-03T12:26:16.871Z,22.9
2017-07-03T12:26:47.403Z,22.9
2017-07-03T12:28:14.303Z,23.1
2017-07-03T12:29:13.901Z,23.1
2017-07-03T12:30:13.128Z,23.1
2017-07-03T12:31:12.850Z,23.1
2017-07-03T12:32:12.064Z,23
2017-07-03T12:33:11.284Z,23
2017-07-03T12:34:11.006Z,22.9
2017-07-03T12:35:10.525Z,22.8
2017-07-03T12:36:09.620Z,22.8
2017-07-03T12:37:09.346Z,22.9
2017-07-03T12:38:09.208Z,22.8
2017-07-03T12:39:08.496Z,22.8
2017-07-03T12:40:07.215Z,22.9
2017-07-03T12:41:06.866Z,22.8
2017-07-03T12:42:05.848Z,22.8
2017-07-03T12:43:05.569Z,22.8
2017-07-03T12:44:05.295Z,22.8
2017-07-03T12:45:04.515Z,22.8
2017-07-03T12:46:03.740Z,22.9
2017-07-03T12:47:03.350Z,22.9
2017-07-03T12:48:02.565Z,22.9
2017-07-03T12:49:02.275Z,23
2017-07-03T12:50:01.485Z,23
2017-07-03T12:51:01.095Z,23
2017-07-03T12:52:00.203Z,23
2017-07-03T12:52:59.938Z,23
2017-07-03T12:53:59.710Z,23
2017-07-03T12:54:58.916Z,22.8
2017-07-03T12:55:58.127Z,22.8
2017-07-03T12:56:57.738Z,22.8
2017-07-03T12:57:57.526Z,22.8
2017-07-03T12:58:56.751Z,22.8
2017-07-03T12:59:55.837Z,22.8
2017-07-03T13:00:55.556Z,22.8
2017-07-03T13:01:54.770Z,22.8
2017-07-03T13:02:54.255Z,22.8
2017-07-03T13:03:53.974Z,22.8
2017-07-03T13:04:53.087Z,22.7
2017-07-03T13:05:52.810Z,22.7
2017-07-03T13:06:51.896Z,22.6
2017-07-03T13:07:51.602Z,22.5
2017-07-03T13:08:50.812Z,22.5
2017-07-03T13:09:50.399Z,22.5
2017-07-03T13:10:50.421Z,22.4